Altoona, Pennsylvania
Current Conditions -  °F | °C
As of 2:53 PM on Monday 24 Nov 2014 (Local Time) from KAOO Reporting Station
Broken Clouds Broken Clouds  
Wind Chill: 66°   Ceiling: 9000
Heat Index: 66°   Visibility: 10mi
Dew Point: 49°   Wind: 14mph
Humidity: 54%   Direction: 190°S
Pressure: 29.51"   Gusts: NA
Location:  40.51°N, 78.4°W
Report Text: KAOO 241953Z AUTO 19012KT 10SM BKN090 19/09 A2951 RMK AO2 SLP987 T01890094
Loading
Personal Weather Stations






























Interactive Weather Map New forecast layout! Learn more

10-Day Weather Forecast

Advertisements
Track Severe Weather on mobile